createdAt,value
2023-04-18T00:00:19.223Z,13.79
2023-04-18T00:01:09.970Z,13.75
2023-04-18T00:01:51.240Z,13.69
2023-04-18T00:02:33.323Z,13.75
2023-04-18T00:03:16.576Z,13.60
2023-04-18T00:04:04.570Z,13.69
2023-04-18T00:04:58.327Z,13.66
2023-04-18T00:05:55.224Z,13.71
2023-04-18T00:06:49.214Z,13.60
2023-04-18T00:07:43.210Z,13.70
2023-04-18T00:08:37.156Z,13.75
2023-04-18T00:09:24.242Z,13.69
2023-04-18T00:09:58.209Z,13.72
2023-04-18T00:10:45.220Z,13.75
2023-04-18T00:11:19.310Z,13.74
2023-04-18T00:12:06.163Z,13.87
2023-04-18T00:12:40.281Z,13.80
2023-04-18T00:13:27.180Z,13.85
2023-04-18T00:14:01.222Z,13.80
2023-04-18T00:14:48.243Z,13.73
2023-04-18T00:15:22.225Z,13.70
2023-04-18T00:16:09.277Z,13.64
2023-04-18T00:16:43.415Z,13.63
2023-04-18T00:17:33.284Z,13.55
2023-04-18T00:18:08.489Z,13.59
2023-04-18T00:18:56.162Z,13.58
2023-04-18T00:19:30.308Z,13.44
2023-04-18T00:20:19.235Z,13.55
2023-04-18T00:21:00.361Z,13.55
2023-04-18T00:21:41.206Z,13.65
2023-04-18T00:22:22.877Z,13.66
2023-04-18T00:23:03.172Z,13.56
2023-04-18T00:23:43.389Z,13.59
2023-04-18T00:24:23.298Z,13.48
2023-04-18T00:25:03.410Z,13.49
2023-04-18T00:25:43.250Z,13.62
2023-04-18T00:26:23.375Z,13.56
2023-04-18T00:27:03.146Z,13.45
2023-04-18T00:27:48.430Z,13.50
2023-04-18T00:28:28.185Z,13.47
2023-04-18T00:29:10.219Z,13.43
2023-04-18T00:29:50.163Z,13.46
2023-04-18T00:30:30.351Z,13.49
2023-04-18T00:31:11.319Z,13.39
2023-04-18T00:31:51.220Z,13.48
2023-04-18T00:32:31.201Z,13.49
2023-04-18T00:33:11.284Z,13.62
2023-04-18T00:33:52.143Z,13.47
2023-04-18T00:34:32.243Z,13.55
2023-04-18T00:35:13.198Z,13.67
2023-04-18T00:35:53.289Z,13.69
2023-04-18T00:36:34.230Z,13.66
2023-04-18T00:37:15.287Z,13.70
2023-04-18T00:37:55.157Z,13.71
2023-04-18T00:38:35.246Z,13.64
2023-04-18T00:39:16.191Z,13.51
2023-04-18T00:39:56.296Z,13.65
2023-04-18T00:40:36.167Z,13.61
2023-04-18T00:41:16.458Z,13.64
2023-04-18T00:41:56.152Z,13.72
2023-04-18T00:42:36.239Z,13.69
2023-04-18T00:43:20.223Z,13.63
2023-04-18T00:44:01.316Z,13.74
2023-04-18T00:44:41.169Z,13.70
2023-04-18T00:45:21.667Z,13.73
2023-04-18T00:46:03.196Z,13.61
2023-04-18T00:46:43.223Z,13.66
2023-04-18T00:47:24.262Z,13.55
2023-04-18T00:48:04.298Z,13.53
2023-04-18T00:48:45.120Z,13.59
2023-04-18T00:49:25.313Z,13.62
2023-04-18T00:50:06.146Z,13.58
2023-04-18T00:50:46.298Z,13.60
2023-04-18T00:51:27.138Z,13.68
2023-04-18T00:52:07.232Z,13.69
2023-04-18T00:52:48.193Z,13.74
2023-04-18T00:53:29.244Z,13.71
2023-04-18T00:54:13.395Z,13.55
2023-04-18T00:54:54.249Z,13.55
2023-04-18T00:55:36.126Z,13.60
2023-04-18T00:56:16.428Z,13.58
2023-04-18T00:56:58.152Z,13.51
2023-04-18T00:57:38.263Z,13.62
2023-04-18T00:58:19.186Z,13.59
2023-04-18T00:58:59.291Z,13.52
2023-04-18T00:59:43.128Z,13.45
2023-04-18T01:00:23.187Z,13.44
2023-04-18T01:01:03.223Z,13.48
2023-04-18T01:01:45.186Z,13.33
2023-04-18T01:02:26.452Z,13.37
2023-04-18T01:03:08.715Z,13.42
2023-04-18T01:03:50.316Z,13.42
2023-04-18T01:04:30.351Z,13.38
2023-04-18T01:05:11.172Z,13.46
2023-04-18T01:05:52.551Z,13.43
2023-04-18T01:06:34.143Z,13.41
2023-04-18T01:07:14.216Z,13.47
2023-04-18T01:07:55.181Z,13.40
2023-04-18T01:08:36.486Z,13.37
2023-04-18T01:09:17.260Z,13.31
2023-04-18T01:09:57.270Z,13.38
2023-04-18T01:10:38.244Z,13.35
2023-04-18T01:11:18.212Z,13.45
2023-04-18T01:11:59.233Z,13.45
2023-04-18T01:12:39.262Z,13.37
2023-04-18T01:13:21.159Z,13.30
2023-04-18T01:14:13.390Z,13.37
2023-04-18T01:14:53.200Z,13.38
2023-04-18T01:15:33.274Z,13.39
2023-04-18T01:16:14.154Z,13.43
2023-04-18T01:16:54.700Z,13.37
2023-04-18T01:17:36.249Z,13.45
2023-04-18T01:18:17.259Z,13.50
2023-04-18T01:18:57.190Z,13.35
2023-04-18T01:19:37.808Z,13.23
2023-04-18T01:20:20.127Z,13.19
2023-04-18T01:21:01.255Z,13.28
2023-04-18T01:21:43.124Z,13.29
2023-04-18T01:22:24.218Z,13.33
2023-04-18T01:23:05.134Z,13.27
2023-04-18T01:23:45.282Z,13.34
2023-04-18T01:24:26.115Z,13.26
2023-04-18T01:25:06.206Z,13.17
2023-04-18T01:25:47.132Z,13.27
2023-04-18T01:26:27.216Z,13.31
2023-04-18T01:27:09.124Z,13.33
2023-04-18T01:27:49.219Z,13.22
2023-04-18T01:28:30.198Z,13.19
2023-04-18T01:29:11.233Z,13.23
2023-04-18T01:29:51.123Z,13.39
2023-04-18T01:30:31.207Z,13.33
2023-04-18T01:31:12.236Z,13.36
2023-04-18T01:31:52.201Z,13.19
2023-04-18T01:32:33.194Z,13.16
2023-04-18T01:33:13.212Z,13.30
2023-04-18T01:33:53.122Z,13.23
2023-04-18T01:34:33.196Z,13.29
2023-04-18T01:35:14.145Z,13.33
2023-04-18T01:35:54.206Z,13.43
2023-04-18T01:36:35.199Z,13.43
2023-04-18T01:37:15.283Z,13.36
2023-04-18T01:37:55.086Z,13.36
2023-04-18T01:38:35.270Z,13.20
2023-04-18T01:39:16.130Z,13.35
2023-04-18T01:39:58.244Z,13.42
2023-04-18T01:40:39.148Z,13.48
2023-04-18T01:41:19.181Z,13.38
2023-04-18T01:41:59.157Z,13.48
2023-04-18T01:42:39.228Z,13.45
2023-04-18T01:43:19.090Z,13.37
2023-04-18T01:43:59.295Z,13.42
2023-04-18T01:44:40.123Z,13.36
2023-04-18T01:45:20.255Z,13.32
2023-04-18T01:46:00.160Z,13.30
2023-04-18T01:46:40.937Z,13.36
2023-04-18T01:47:21.142Z,13.37
2023-04-18T01:48:01.334Z,13.36
2023-04-18T01:48:42.129Z,13.31
2023-04-18T01:49:23.170Z,13.36
2023-04-18T01:50:03.110Z,13.23
2023-04-18T01:50:43.250Z,13.20
2023-04-18T01:51:23.086Z,13.27
2023-04-18T01:52:03.177Z,13.12
2023-04-18T01:52:44.392Z,13.24
2023-04-18T01:53:25.671Z,13.29
2023-04-18T01:54:06.076Z,13.23
2023-04-18T01:54:47.196Z,13.16
2023-04-18T01:55:28.105Z,13.26
2023-04-18T01:56:10.165Z,13.24
2023-04-18T01:56:51.158Z,13.28
2023-04-18T01:57:31.175Z,13.29
2023-04-18T01:58:11.172Z,13.15
2023-04-18T01:58:51.212Z,13.16
2023-04-18T01:59:31.090Z,13.24
2023-04-18T02:00:13.204Z,13.19
2023-04-18T02:00:54.153Z,13.23
2023-04-18T02:01:34.347Z,13.18
2023-04-18T02:03:16.190Z,13.20
2023-04-18T02:03:50.484Z,13.11
2023-04-18T02:04:38.120Z,13.02
2023-04-18T02:05:12.205Z,13.09
2023-04-18T02:05:59.050Z,13.19
2023-04-18T02:06:33.183Z,13.15
2023-04-18T02:07:20.114Z,13.24
2023-04-18T02:07:54.164Z,13.22
2023-04-18T02:08:42.469Z,13.27
2023-04-18T02:09:16.260Z,13.26
2023-04-18T02:10:03.171Z,13.24
2023-04-18T02:10:37.165Z,13.28
2023-04-18T02:11:24.125Z,13.44
2023-04-18T02:11:59.500Z,13.38
2023-04-18T02:12:47.048Z,13.31
2023-04-18T02:13:21.110Z,13.31
2023-04-18T02:14:02.247Z,13.33
2023-04-18T02:14:43.316Z,13.30
2023-04-18T02:15:23.102Z,13.36
2023-04-18T02:16:03.232Z,13.27
2023-04-18T02:16:44.125Z,13.08
2023-04-18T02:17:24.608Z,13.12
2023-04-18T02:18:08.088Z,13.21
2023-04-18T02:19:03.106Z,13.17
2023-04-18T02:19:58.065Z,13.20
2023-04-18T02:20:52.082Z,13.29
2023-04-18T02:21:48.099Z,13.26
2023-04-18T02:22:42.041Z,13.24
2023-04-18T02:23:37.478Z,13.27
2023-04-18T02:24:25.126Z,13.26
2023-04-18T02:24:59.159Z,13.35
2023-04-18T02:25:46.043Z,13.35
2023-04-18T02:26:20.338Z,13.33
2023-04-18T02:27:07.064Z,13.36
2023-04-18T02:27:41.178Z,13.32
2023-04-18T02:28:28.036Z,13.34
2023-04-18T02:29:02.316Z,13.28
2023-04-18T02:29:49.075Z,13.35
2023-04-18T02:30:23.213Z,13.29
2023-04-18T02:31:10.069Z,13.34
2023-04-18T02:31:47.214Z,13.36
2023-04-18T02:32:34.115Z,13.31
2023-04-18T02:33:08.251Z,13.24
2023-04-18T02:33:55.117Z,13.30
2023-04-18T02:34:29.152Z,13.22
2023-04-18T02:35:10.077Z,13.16
2023-04-18T02:35:50.208Z,13.13
2023-04-18T02:36:33.100Z,13.07
2023-04-18T02:37:13.167Z,13.07
2023-04-18T02:37:53.042Z,13.11
2023-04-18T02:38:33.186Z,13.12
2023-04-18T02:39:13.092Z,13.02
2023-04-18T02:39:53.141Z,13.08
2023-04-18T02:40:34.060Z,13.06
2023-04-18T02:41:17.490Z,13.15
2023-04-18T02:41:57.041Z,13.11
2023-04-18T02:42:38.211Z,12.99
2023-04-18T02:43:18.033Z,13.11
2023-04-18T02:43:58.225Z,13.01
2023-04-18T02:44:39.040Z,13.14
2023-04-18T02:45:19.131Z,13.10
2023-04-18T02:45:59.066Z,12.97
2023-04-18T02:46:39.153Z,12.83
2023-04-18T02:47:19.073Z,12.97
2023-04-18T02:47:59.269Z,12.88
2023-04-18T02:48:40.083Z,12.98
2023-04-18T02:49:20.232Z,12.95
2023-04-18T02:50:01.025Z,12.94
2023-04-18T02:50:41.138Z,13.00
2023-04-18T02:51:21.063Z,13.02
2023-04-18T02:52:02.104Z,12.99
2023-04-18T02:52:43.004Z,12.89
2023-04-18T02:53:25.020Z,12.87
2023-04-18T02:54:05.044Z,12.95
2023-04-18T02:54:45.192Z,12.91
2023-04-18T02:55:33.066Z,12.93
2023-04-18T02:56:07.124Z,12.88
2023-04-18T02:56:49.035Z,12.85
2023-04-18T02:57:30.170Z,12.90
2023-04-18T02:58:10.059Z,12.94
2023-04-18T02:58:50.206Z,13.06
2023-04-18T02:59:30.039Z,13.14
2023-04-18T03:00:11.131Z,13.12
2023-04-18T03:00:51.055Z,13.16
2023-04-18T03:01:31.127Z,13.17
2023-04-18T03:02:18.122Z,13.15
2023-04-18T03:02:53.153Z,12.94
2023-04-18T03:03:40.071Z,12.92
2023-04-18T03:04:14.921Z,13.00
2023-04-18T03:05:03.204Z,13.06
2023-04-18T03:05:36.892Z,13.09
2023-04-18T03:06:24.017Z,13.07
2023-04-18T03:07:18.097Z,13.00
2023-04-18T03:08:12.082Z,12.91
2023-04-18T03:09:08.062Z,13.00
2023-04-18T03:10:02.098Z,12.95
2023-04-18T03:10:56.449Z,12.94
2023-04-18T03:11:50.997Z,13.05
2023-04-18T03:12:38.062Z,12.99
2023-04-18T03:13:12.105Z,12.87
2023-04-18T03:14:00.067Z,12.91
2023-04-18T03:14:34.107Z,13.07
2023-04-18T03:15:22.032Z,13.03
2023-04-18T03:15:56.388Z,13.14
2023-04-18T03:16:43.015Z,13.14
2023-04-18T03:17:17.171Z,13.14
2023-04-18T03:17:58.141Z,13.12
2023-04-18T03:18:38.100Z,13.14
2023-04-18T03:19:18.019Z,13.17
2023-04-18T03:19:58.101Z,13.20
2023-04-18T03:20:39.051Z,13.16
2023-04-18T03:21:19.790Z,13.10
2023-04-18T03:22:01.044Z,13.20
2023-04-18T03:22:41.111Z,13.20
2023-04-18T03:23:21.024Z,12.99
2023-04-18T03:24:01.070Z,13.02
2023-04-18T03:24:42.058Z,13.02
2023-04-18T03:25:22.063Z,13.09
2023-04-18T03:26:02.068Z,13.03
2023-04-18T03:26:46.899Z,12.90
2023-04-18T03:27:27.001Z,13.00
2023-04-18T03:28:07.094Z,13.02
2023-04-18T03:28:48.007Z,13.03
2023-04-18T03:29:28.086Z,13.09
2023-04-18T03:30:09.002Z,13.04
2023-04-18T03:30:49.044Z,13.10
2023-04-18T03:31:29.013Z,13.19
2023-04-18T03:32:09.183Z,13.18
2023-04-18T03:32:50.088Z,13.21
2023-04-18T03:33:30.097Z,13.02
2023-04-18T03:34:09.991Z,12.96
2023-04-18T03:34:50.283Z,12.93
2023-04-18T03:35:30.153Z,13.02
2023-04-18T03:36:10.150Z,12.97
2023-04-18T03:36:50.971Z,12.99
2023-04-18T03:37:31.118Z,13.05
2023-04-18T03:38:10.952Z,13.09
2023-04-18T03:38:51.067Z,13.13
2023-04-18T03:39:31.024Z,13.09
2023-04-18T03:40:12.069Z,13.00
2023-04-18T03:40:53.177Z,12.93
2023-04-18T03:41:34.127Z,12.91
2023-04-18T03:42:13.969Z,12.88
2023-04-18T03:42:54.099Z,12.88
2023-04-18T03:43:33.991Z,12.92
2023-04-18T03:44:14.326Z,12.97
2023-04-18T03:44:56.072Z,12.92
2023-04-18T03:45:36.127Z,12.99
2023-04-18T03:46:15.977Z,12.98
2023-04-18T03:46:57.268Z,12.94
2023-04-18T03:47:39.008Z,12.97
2023-04-18T03:48:20.489Z,13.02
2023-04-18T03:49:00.977Z,12.98
2023-04-18T03:49:41.263Z,13.07
2023-04-18T03:50:20.978Z,12.94
2023-04-18T03:51:01.120Z,12.82
2023-04-18T03:51:51.000Z,12.92
2023-04-18T03:52:31.068Z,13.02
2023-04-18T03:53:11.966Z,12.87
2023-04-18T03:53:52.093Z,12.95
2023-04-18T03:54:32.009Z,12.93
2023-04-18T03:55:13.496Z,12.99
2023-04-18T03:55:54.005Z,12.96
2023-04-18T03:56:34.025Z,13.03
2023-04-18T03:57:14.942Z,13.02
2023-04-18T03:57:55.069Z,12.90
2023-04-18T03:58:35.018Z,12.95
2023-04-18T03:59:15.667Z,13.02
2023-04-18T03:59:55.974Z,13.03
2023-04-18T04:00:36.149Z,13.05
2023-04-18T04:01:17.017Z,13.02
2023-04-18T04:01:57.139Z,13.05
2023-04-18T04:02:37.109Z,13.05
2023-04-18T04:03:17.109Z,12.85
2023-04-18T04:03:57.010Z,13.00
2023-04-18T04:04:37.181Z,13.01
2023-04-18T04:05:18.038Z,12.92
2023-04-18T04:05:58.165Z,12.97
2023-04-18T04:06:39.049Z,12.92
2023-04-18T04:07:33.001Z,13.01
2023-04-18T04:08:28.393Z,13.07
2023-04-18T04:09:21.967Z,13.05
2023-04-18T04:10:15.950Z,13.01
2023-04-18T04:11:09.960Z,13.07
2023-04-18T04:11:57.027Z,13.16
2023-04-18T04:12:32.055Z,13.20
2023-04-18T04:13:19.033Z,13.14
2023-04-18T04:13:53.285Z,13.09
2023-04-18T04:14:39.944Z,13.03
2023-04-18T04:15:14.145Z,13.04
2023-04-18T04:16:00.990Z,13.06
2023-04-18T04:16:35.032Z,13.05
2023-04-18T04:17:22.084Z,13.01
2023-04-18T04:17:57.116Z,13.01
2023-04-18T04:18:43.958Z,13.07
2023-04-18T04:19:18.233Z,13.10
2023-04-18T04:20:04.946Z,13.11
2023-04-18T04:20:39.042Z,13.14
2023-04-18T04:21:25.953Z,13.17
2023-04-18T04:22:00.037Z,13.08
2023-04-18T04:22:48.017Z,13.13
2023-04-18T04:23:22.698Z,13.13
2023-04-18T04:24:10.024Z,13.25
2023-04-18T04:24:44.211Z,13.21
2023-04-18T04:25:35.002Z,13.16
2023-04-18T04:26:09.136Z,13.05
2023-04-18T04:26:56.953Z,13.13
2023-04-18T04:27:31.019Z,12.98
2023-04-18T04:28:13.008Z,13.10
2023-04-18T04:28:53.669Z,13.01
2023-04-18T04:29:35.927Z,13.09
2023-04-18T04:30:17.221Z,13.14
2023-04-18T04:30:57.979Z,12.97
2023-04-18T04:31:38.138Z,13.03
2023-04-18T04:32:18.998Z,13.08
2023-04-18T04:32:59.931Z,13.15
2023-04-18T04:33:40.930Z,12.95
2023-04-18T04:34:21.583Z,13.17
2023-04-18T04:35:02.927Z,13.18
2023-04-18T04:35:43.037Z,13.14
2023-04-18T04:36:24.965Z,13.16
2023-04-18T04:37:05.033Z,13.14
2023-04-18T04:37:47.981Z,13.16
2023-04-18T04:38:31.331Z,13.13
2023-04-18T04:39:11.973Z,13.12
2023-04-18T04:39:52.366Z,13.09
2023-04-18T04:40:31.997Z,13.08
2023-04-18T04:41:13.047Z,13.14
2023-04-18T04:41:53.923Z,13.11
2023-04-18T04:42:34.633Z,12.94
2023-04-18T04:43:18.959Z,13.02
2023-04-18T04:43:59.601Z,12.98
2023-04-18T04:44:42.000Z,13.14
2023-04-18T04:45:23.347Z,13.12
2023-04-18T04:46:04.003Z,13.23
2023-04-18T04:46:44.919Z,13.26
2023-04-18T04:47:26.079Z,13.25
2023-04-18T04:48:07.120Z,13.20
2023-04-18T04:48:46.970Z,13.26
2023-04-18T04:49:27.041Z,13.28
2023-04-18T04:50:08.253Z,13.35
2023-04-18T04:50:49.082Z,13.27
2023-04-18T04:51:28.915Z,13.26
2023-04-18T04:52:09.034Z,13.25
2023-04-18T04:52:49.959Z,13.33
2023-04-18T04:53:35.052Z,13.32
2023-04-18T04:54:16.350Z,13.28
2023-04-18T04:54:58.007Z,13.24
2023-04-18T04:55:38.904Z,13.35
2023-04-18T04:56:19.010Z,13.22
2023-04-18T04:56:58.942Z,13.43
2023-04-18T04:57:39.085Z,13.42
2023-04-18T04:58:19.977Z,13.35
2023-04-18T04:59:01.974Z,13.33
2023-04-18T04:59:42.928Z,13.37
2023-04-18T05:00:36.927Z,13.29
2023-04-18T05:01:18.980Z,13.33
2023-04-18T05:01:58.990Z,13.28
2023-04-18T05:02:39.051Z,13.41
2023-04-18T05:03:19.169Z,13.43
2023-04-18T05:03:59.083Z,13.44
2023-04-18T05:04:39.296Z,13.51
2023-04-18T05:05:18.933Z,13.38
2023-04-18T05:05:59.951Z,13.33
2023-04-18T05:06:34.021Z,13.33
2023-04-18T05:07:21.004Z,13.34
2023-04-18T05:07:54.999Z,13.33
2023-04-18T05:08:41.986Z,13.37
2023-04-18T05:09:16.000Z,13.35
2023-04-18T05:10:02.915Z,13.41
2023-04-18T05:10:37.395Z,13.45
2023-04-18T05:11:25.961Z,13.45
2023-04-18T05:11:59.967Z,13.39
2023-04-18T05:12:46.920Z,13.28
2023-04-18T05:13:21.076Z,13.38
2023-04-18T05:14:07.902Z,13.23
2023-04-18T05:14:42.029Z,13.27
2023-04-18T05:15:30.895Z,13.39
2023-04-18T05:16:05.047Z,13.47
2023-04-18T05:16:44.976Z,13.53
2023-04-18T05:17:25.049Z,13.52
2023-04-18T05:18:05.912Z,13.52
2023-04-18T05:18:45.989Z,13.53
2023-04-18T05:19:25.877Z,13.52
2023-04-18T05:20:05.956Z,13.49
2023-04-18T05:20:46.915Z,13.45
2023-04-18T05:21:28.863Z,13.45
2023-04-18T05:22:09.898Z,13.54
2023-04-18T05:22:50.010Z,13.51
2023-04-18T05:23:29.905Z,13.55
2023-04-18T05:24:10.029Z,13.58
2023-04-18T05:24:49.876Z,13.52
2023-04-18T05:25:31.496Z,13.57
2023-04-18T05:26:12.881Z,13.44
2023-04-18T05:26:53.117Z,13.46
2023-04-18T05:27:33.956Z,13.52
2023-04-18T05:28:13.993Z,13.52
2023-04-18T05:28:54.876Z,13.55
2023-04-18T05:29:34.985Z,13.54
2023-04-18T05:30:15.967Z,13.46
2023-04-18T05:31:01.170Z,13.50
2023-04-18T05:31:40.886Z,13.44
2023-04-18T05:32:34.957Z,13.49
2023-04-18T05:33:28.944Z,13.38
2023-04-18T05:34:22.893Z,13.45
2023-04-18T05:35:16.876Z,13.47
2023-04-18T05:36:12.138Z,13.44
2023-04-18T05:37:05.904Z,13.43
2023-04-18T05:37:52.924Z,13.45
2023-04-18T05:38:27.057Z,13.43
2023-04-18T05:39:14.872Z,13.37
2023-04-18T05:39:48.957Z,13.36
2023-04-18T05:40:36.868Z,13.30
2023-04-18T05:41:10.926Z,13.31
2023-04-18T05:41:57.872Z,13.51
2023-04-18T05:42:32.012Z,13.47
2023-04-18T05:43:11.900Z,13.28
2023-04-18T05:44:02.449Z,13.32
2023-04-18T05:44:44.874Z,13.23
2023-04-18T05:45:25.019Z,13.21
2023-04-18T05:46:05.929Z,13.21
2023-04-18T05:46:46.036Z,13.26
2023-04-18T05:47:26.985Z,13.28
2023-04-18T05:48:06.996Z,13.19
2023-04-18T05:48:47.907Z,13.11
2023-04-18T05:49:27.987Z,13.12
2023-04-18T05:50:08.984Z,13.16
2023-04-18T05:50:49.035Z,13.16
2023-04-18T05:51:28.911Z,13.19
2023-04-18T05:52:08.967Z,13.19
2023-04-18T05:52:48.862Z,13.30
2023-04-18T05:53:29.059Z,13.22
2023-04-18T05:54:09.886Z,13.27
2023-04-18T05:54:49.943Z,13.19
2023-04-18T05:55:29.862Z,13.28
2023-04-18T05:56:09.988Z,13.20
2023-04-18T05:56:49.905Z,13.36
2023-04-18T05:57:29.947Z,13.36
2023-04-18T05:58:10.867Z,13.27
2023-04-18T05:58:51.429Z,13.30
2023-04-18T05:59:33.862Z,13.44
2023-04-18T06:00:15.043Z,13.42
2023-04-18T06:00:55.848Z,13.36
2023-04-18T06:01:35.933Z,13.42
2023-04-18T06:02:19.980Z,13.46
2023-04-18T06:03:00.265Z,13.52
2023-04-18T06:03:42.262Z,13.61
2023-04-18T06:04:23.130Z,13.46
2023-04-18T06:05:03.176Z,13.53
2023-04-18T06:05:44.114Z,13.58
2023-04-18T06:06:24.841Z,13.49
2023-04-18T06:07:04.965Z,13.36
2023-04-18T06:07:45.822Z,13.56
2023-04-18T06:08:26.103Z,13.58
2023-04-18T06:09:05.868Z,13.54
2023-04-18T06:09:46.057Z,13.50
2023-04-18T06:10:26.887Z,13.49
2023-04-18T06:11:06.985Z,13.61
2023-04-18T06:11:47.931Z,13.65
2023-04-18T06:12:28.105Z,13.66
2023-04-18T06:13:08.870Z,13.68
2023-04-18T06:13:49.996Z,13.60
2023-04-18T06:14:30.870Z,13.51
2023-04-18T06:15:12.006Z,13.29
2023-04-18T06:15:51.883Z,13.38
2023-04-18T06:16:32.111Z,13.30
2023-04-18T06:17:13.858Z,13.23
2023-04-18T06:17:54.206Z,13.35
2023-04-18T06:18:34.833Z,13.24
2023-04-18T06:19:15.082Z,13.34
2023-04-18T06:19:54.852Z,13.32
2023-04-18T06:20:34.927Z,13.36
2023-04-18T06:21:14.860Z,13.30
2023-04-18T06:21:55.924Z,13.31
2023-04-18T06:22:36.891Z,13.19
2023-04-18T06:23:17.027Z,13.31
2023-04-18T06:23:58.865Z,13.38
2023-04-18T06:24:39.071Z,13.44
2023-04-18T06:25:19.821Z,13.37
2023-04-18T06:25:59.960Z,13.32
2023-04-18T06:26:40.900Z,13.51
2023-04-18T06:27:34.848Z,13.41
2023-04-18T06:28:28.880Z,13.44
2023-04-18T06:29:24.932Z,13.44
2023-04-18T06:30:19.827Z,13.47
2023-04-18T06:31:14.916Z,13.38
2023-04-18T06:32:04.091Z,13.38
2023-04-18T06:32:37.971Z,13.37
2023-04-18T06:33:24.874Z,13.53
2023-04-18T06:33:58.902Z,13.52
2023-04-18T06:34:46.860Z,13.60
2023-04-18T06:35:20.954Z,13.61
2023-04-18T06:36:07.870Z,13.60
2023-04-18T06:36:41.932Z,13.62
2023-04-18T06:37:28.861Z,13.54
2023-04-18T06:38:02.963Z,13.69
2023-04-18T06:38:49.842Z,13.64
2023-04-18T06:39:23.939Z,13.65
2023-04-18T06:40:11.848Z,13.59
2023-04-18T06:40:45.942Z,13.59
2023-04-18T06:41:32.821Z,13.68
2023-04-18T06:42:06.926Z,13.59
2023-04-18T06:42:53.806Z,13.52
2023-04-18T06:43:27.906Z,13.51
2023-04-18T06:44:14.866Z,13.58
2023-04-18T06:44:48.991Z,13.57
2023-04-18T06:45:39.033Z,13.48
2023-04-18T06:46:13.052Z,13.48
2023-04-18T06:46:59.809Z,13.47
2023-04-18T06:47:33.942Z,13.61
2023-04-18T06:48:15.852Z,13.63
2023-04-18T06:48:57.165Z,13.64
2023-04-18T06:49:36.911Z,13.61
2023-04-18T06:50:16.970Z,13.59
2023-04-18T06:50:57.882Z,13.58
2023-04-18T06:51:37.921Z,13.63
2023-04-18T06:52:17.817Z,13.48
2023-04-18T06:52:58.148Z,13.50
2023-04-18T06:53:37.861Z,13.50
2023-04-18T06:54:17.939Z,13.43
2023-04-18T06:54:58.844Z,13.41
2023-04-18T06:55:38.929Z,13.43
2023-04-18T06:56:18.822Z,13.34
2023-04-18T06:56:59.934Z,13.48
2023-04-18T06:57:39.828Z,13.49
2023-04-18T06:58:19.948Z,13.53
2023-04-18T06:59:00.811Z,13.55
2023-04-18T06:59:41.526Z,13.54
2023-04-18T07:00:22.830Z,13.55
2023-04-18T07:01:02.984Z,13.45
2023-04-18T07:01:49.925Z,13.44
2023-04-18T07:02:29.939Z,13.62
2023-04-18T07:03:15.944Z,13.72
2023-04-18T07:03:56.007Z,13.73
2023-04-18T07:04:35.899Z,13.76
2023-04-18T07:05:15.928Z,13.67
2023-04-18T07:05:56.805Z,13.66
2023-04-18T07:06:36.973Z,13.48
2023-04-18T07:07:17.828Z,13.66
2023-04-18T07:07:58.915Z,13.63
2023-04-18T07:08:40.795Z,13.65
2023-04-18T07:09:21.053Z,13.72
2023-04-18T07:10:01.873Z,13.80
2023-04-18T07:10:42.133Z,13.67
2023-04-18T07:11:24.839Z,13.74
2023-04-18T07:12:04.867Z,13.74
2023-04-18T07:12:44.828Z,13.81
2023-04-18T07:13:24.947Z,13.84
2023-04-18T07:14:04.804Z,13.79
2023-04-18T07:14:45.876Z,13.73
2023-04-18T07:15:26.805Z,13.71
2023-04-18T07:16:06.914Z,13.79
2023-04-18T07:16:46.856Z,13.86
2023-04-18T07:17:26.885Z,13.90
2023-04-18T07:18:06.843Z,13.86
2023-04-18T07:18:46.844Z,13.74
2023-04-18T07:19:27.734Z,13.70
2023-04-18T07:20:08.005Z,13.86
2023-04-18T07:20:47.814Z,13.72
2023-04-18T07:21:28.024Z,13.68
2023-04-18T07:22:07.814Z,13.87
2023-04-18T07:22:48.150Z,13.85
2023-04-18T07:23:28.771Z,13.94
2023-04-18T07:24:08.880Z,13.91
2023-04-18T07:24:50.825Z,13.74
2023-04-18T07:25:30.907Z,13.88
2023-04-18T07:26:11.785Z,13.77
2023-04-18T07:26:54.406Z,13.79
2023-04-18T07:27:35.826Z,13.83
2023-04-18T07:28:16.604Z,13.92
2023-04-18T07:28:57.881Z,13.87
2023-04-18T07:29:38.956Z,13.82
2023-04-18T07:30:19.804Z,13.88
2023-04-18T07:30:59.932Z,13.94
2023-04-18T07:31:41.843Z,13.83
2023-04-18T07:32:21.909Z,13.80
2023-04-18T07:33:02.831Z,13.80
2023-04-18T07:33:43.452Z,13.77
2023-04-18T07:34:24.759Z,13.73
2023-04-18T07:35:05.324Z,13.82
2023-04-18T07:35:46.823Z,13.73
2023-04-18T07:36:27.734Z,13.81
2023-04-18T07:37:07.834Z,13.83
2023-04-18T07:37:47.842Z,13.85
2023-04-18T07:38:27.789Z,13.97
2023-04-18T07:39:08.975Z,14.00
2023-04-18T07:39:49.778Z,14.00
2023-04-18T07:40:29.902Z,14.04
2023-04-18T07:41:10.768Z,13.98
2023-04-18T07:41:50.960Z,14.05
2023-04-18T07:42:30.857Z,14.06
2023-04-18T07:43:10.939Z,14.22
2023-04-18T07:43:51.765Z,14.26
2023-04-18T07:44:31.928Z,14.29
2023-04-18T07:45:12.776Z,14.42
2023-04-18T07:45:52.921Z,14.34
2023-04-18T07:46:33.897Z,14.29
2023-04-18T07:47:15.980Z,14.40
2023-04-18T07:47:56.862Z,14.34
2023-04-18T07:48:36.850Z,14.34
2023-04-18T07:49:16.931Z,14.28
2023-04-18T07:49:57.406Z,14.42
2023-04-18T07:50:37.747Z,14.46
2023-04-18T07:51:18.856Z,14.51
2023-04-18T07:51:59.726Z,14.47
2023-04-18T07:52:39.874Z,14.47
2023-04-18T07:53:20.796Z,14.56
2023-04-18T07:54:00.887Z,14.51
2023-04-18T07:54:40.805Z,14.57
2023-04-18T07:55:21.916Z,14.46
2023-04-18T07:56:02.754Z,14.53
2023-04-18T07:56:42.882Z,14.60
2023-04-18T07:57:22.724Z,14.63
2023-04-18T07:58:02.829Z,14.61
2023-04-18T07:58:42.767Z,14.68
2023-04-18T07:59:22.889Z,14.54
2023-04-18T08:00:03.782Z,14.58
2023-04-18T08:00:45.995Z,14.63
2023-04-18T08:01:30.792Z,14.64
2023-04-18T08:02:11.187Z,14.65
2023-04-18T08:02:50.928Z,14.66
2023-04-18T08:03:30.990Z,14.60
2023-04-18T08:04:11.982Z,14.68
2023-04-18T08:04:52.043Z,14.63
2023-04-18T08:05:32.888Z,14.61
2023-04-18T08:06:13.828Z,14.68
2023-04-18T08:06:53.769Z,14.64
2023-04-18T08:07:33.844Z,14.66
2023-04-18T08:08:16.753Z,14.69
2023-04-18T08:08:58.915Z,14.69
2023-04-18T08:09:38.773Z,14.67
2023-04-18T08:10:18.822Z,14.53
2023-04-18T08:10:58.723Z,14.60
2023-04-18T08:11:41.276Z,14.60
2023-04-18T08:12:22.770Z,14.70
2023-04-18T08:13:19.822Z,14.66
2023-04-18T08:14:14.753Z,14.75
2023-04-18T08:15:01.833Z,14.83
2023-04-18T08:15:35.857Z,14.84
2023-04-18T08:16:22.820Z,14.68
2023-04-18T08:16:56.852Z,14.66
2023-04-18T08:17:45.713Z,14.59
2023-04-18T08:18:20.010Z,14.65
2023-04-18T08:19:06.808Z,14.54
2023-04-18T08:19:40.916Z,14.69
2023-04-18T08:20:21.750Z,14.65
2023-04-18T08:21:01.909Z,14.75
2023-04-18T08:21:42.723Z,14.64
2023-04-18T08:22:22.828Z,14.70
2023-04-18T08:23:07.944Z,14.78
2023-04-18T08:23:49.925Z,14.64
2023-04-18T08:24:29.704Z,14.64
2023-04-18T08:25:09.889Z,14.57
2023-04-18T08:25:49.761Z,14.61
2023-04-18T08:26:29.814Z,14.62
2023-04-18T08:27:10.731Z,14.72
2023-04-18T08:27:50.828Z,14.72
2023-04-18T08:28:30.723Z,14.68
2023-04-18T08:29:51.793Z,14.80
2023-04-18T08:30:31.803Z,14.91
2023-04-18T08:31:12.741Z,14.97
2023-04-18T08:31:53.910Z,14.98
2023-04-18T08:32:34.775Z,14.88
2023-04-18T08:33:15.141Z,15.03
2023-04-18T08:34:56.790Z,15.09
2023-04-18T08:35:37.791Z,15.17
2023-04-18T08:36:25.780Z,15.15
2023-04-18T08:37:19.728Z,15.26
2023-04-18T08:38:14.713Z,15.24
2023-04-18T08:39:08.748Z,15.30
2023-04-18T08:40:02.730Z,15.24
2023-04-18T08:41:00.715Z,15.31
2023-04-18T08:41:49.756Z,15.29
2023-04-18T08:42:25.856Z,15.32
2023-04-18T08:43:18.703Z,15.28
2023-04-18T08:43:57.161Z,15.36
2023-04-18T08:44:44.732Z,15.26
2023-04-18T08:45:20.934Z,15.27
2023-04-18T08:46:08.771Z,15.31
2023-04-18T08:46:42.805Z,15.29
2023-04-18T08:47:22.751Z,15.28
2023-04-18T08:48:03.685Z,15.37
2023-04-18T08:48:44.721Z,15.41
2023-04-18T08:49:25.827Z,15.42
2023-04-18T08:50:06.732Z,15.41
2023-04-18T08:50:47.899Z,15.45
2023-04-18T08:51:28.706Z,15.43
2023-04-18T08:52:09.819Z,15.31
2023-04-18T08:52:55.722Z,15.45
2023-04-18T08:53:35.791Z,15.55
2023-04-18T08:54:16.700Z,15.58
2023-04-18T08:54:57.782Z,15.57
2023-04-18T08:55:39.743Z,15.52
2023-04-18T08:56:22.333Z,15.60
2023-04-18T08:57:13.696Z,15.56
2023-04-18T08:57:54.161Z,15.43